createdAt,value
2018-10-11T00:00:14.376Z,16.90
2018-10-11T00:02:42.916Z,16.90
2018-10-11T00:05:11.365Z,16.80
2018-10-11T00:07:39.922Z,16.80
2018-10-11T00:10:08.449Z,16.80
2018-10-11T00:12:37.143Z,16.70
2018-10-11T00:15:05.639Z,16.70
2018-10-11T00:17:34.088Z,16.70
2018-10-11T00:20:02.687Z,16.70
2018-10-11T00:22:31.145Z,16.70
2018-10-11T00:24:59.656Z,16.70
2018-10-11T00:27:28.207Z,16.70
2018-10-11T00:29:57.728Z,16.60
2018-10-11T00:32:26.193Z,16.70
2018-10-11T00:34:55.744Z,16.80
2018-10-11T00:37:24.185Z,16.80
2018-10-11T00:39:53.717Z,16.80
2018-10-11T00:42:22.266Z,16.70
2018-10-11T00:44:50.772Z,16.70
2018-10-11T00:47:19.255Z,16.70
2018-10-11T00:49:47.718Z,16.70
2018-10-11T00:53:19.585Z,16.70
2018-10-11T00:55:49.096Z,16.70
2018-10-11T00:58:17.577Z,16.60
2018-10-11T01:00:46.083Z,16.60
2018-10-11T01:03:14.554Z,16.60
2018-10-11T01:05:43.042Z,16.60
2018-10-11T01:08:11.505Z,16.60
2018-10-11T01:10:39.982Z,16.60
2018-10-11T01:13:08.504Z,16.60
2018-10-11T01:15:36.948Z,16.60
2018-10-11T01:18:05.755Z,16.50
2018-10-11T01:20:34.216Z,16.50
2018-10-11T01:23:02.718Z,16.50
2018-10-11T01:25:31.176Z,16.50
2018-10-11T01:27:59.853Z,16.50
2018-10-11T01:30:28.345Z,16.50
2018-10-11T01:32:57.057Z,16.50
2018-10-11T01:35:26.044Z,16.50
2018-10-11T01:37:54.851Z,16.50
2018-10-11T01:40:23.516Z,16.50
2018-10-11T01:43:04.103Z,16.40
2018-10-11T01:45:32.765Z,16.30
2018-10-11T01:48:01.317Z,16.20
2018-10-11T01:50:29.872Z,16.30
2018-10-11T01:52:58.730Z,16.20
2018-10-11T01:55:28.354Z,16.20
2018-10-11T01:57:58.557Z,16.30
2018-10-11T02:00:27.153Z,16.30
2018-10-11T02:02:57.470Z,16.30
2018-10-11T02:05:26.583Z,16.20
2018-10-11T02:07:55.968Z,16.20
2018-10-11T02:10:24.862Z,16.10
2018-10-11T02:12:53.334Z,16.10
2018-10-11T02:15:21.816Z,16.00
2018-10-11T02:17:50.309Z,16.00
2018-10-11T02:20:18.805Z,16.00
2018-10-11T02:22:47.260Z,16.00
2018-10-11T02:25:15.781Z,16.00
2018-10-11T02:27:44.269Z,16.00
2018-10-11T02:30:13.246Z,16.00
2018-10-11T02:32:42.228Z,16.00
2018-10-11T02:35:11.405Z,16.00
2018-10-11T02:37:40.333Z,16.00
2018-10-11T02:40:08.810Z,16.00
2018-10-11T02:42:37.284Z,15.90
2018-10-11T02:45:06.481Z,15.90
2018-10-11T02:47:35.012Z,15.80
2018-10-11T02:50:03.541Z,15.80
2018-10-11T02:52:32.065Z,15.70
2018-10-11T02:55:00.561Z,15.70
2018-10-11T02:57:40.336Z,15.70
2018-10-11T03:00:08.900Z,15.60
2018-10-11T03:02:38.535Z,15.60
2018-10-11T03:05:13.580Z,15.60
2018-10-11T03:07:42.148Z,15.60
2018-10-11T03:10:10.665Z,15.50
2018-10-11T03:12:39.157Z,15.50
2018-10-11T03:15:08.017Z,15.50
2018-10-11T03:17:36.506Z,15.50
2018-10-11T03:20:05.140Z,15.50
2018-10-11T03:22:33.665Z,15.60
2018-10-11T03:25:02.148Z,15.60
2018-10-11T03:27:30.619Z,15.60
2018-10-11T03:29:59.138Z,15.50
2018-10-11T03:32:27.581Z,15.50
2018-10-11T03:34:56.077Z,15.50
2018-10-11T03:37:24.545Z,15.40
2018-10-11T03:39:53.037Z,15.40
2018-10-11T03:42:21.514Z,15.30
2018-10-11T03:44:50.047Z,15.30
2018-10-11T03:47:18.569Z,15.30
2018-10-11T03:49:48.160Z,15.30
2018-10-11T03:52:17.185Z,15.20
2018-10-11T03:54:45.821Z,15.20
2018-10-11T03:57:14.240Z,15.20
2018-10-11T03:59:42.814Z,15.20
2018-10-11T04:02:11.383Z,15.20
2018-10-11T04:04:39.941Z,15.20
2018-10-11T04:07:08.404Z,15.20
2018-10-11T04:09:36.864Z,15.10
2018-10-11T04:12:05.374Z,15.10
2018-10-11T04:14:33.862Z,15.10
2018-10-11T04:17:02.302Z,15.10
2018-10-11T04:19:30.818Z,15.10
2018-10-11T04:21:59.266Z,15.00
2018-10-11T04:24:27.776Z,15.00
2018-10-11T04:26:56.228Z,15.00
2018-10-11T04:29:25.210Z,15.00
2018-10-11T04:31:53.713Z,15.00
2018-10-11T04:34:22.200Z,15.00
2018-10-11T04:36:50.664Z,15.00
2018-10-11T04:39:19.145Z,14.90
2018-10-11T04:41:47.645Z,14.90
2018-10-11T04:44:16.109Z,14.90
2018-10-11T04:46:44.649Z,14.90
2018-10-11T04:49:13.156Z,14.90
2018-10-11T04:51:42.496Z,14.80
2018-10-11T04:54:10.977Z,14.80
2018-10-11T04:56:39.449Z,14.80
2018-10-11T04:59:08.203Z,14.80
2018-10-11T05:01:36.753Z,14.80
2018-10-11T05:04:05.172Z,14.70
2018-10-11T05:06:33.750Z,14.70
2018-10-11T05:09:02.293Z,14.70
2018-10-11T05:11:30.846Z,14.70
2018-10-11T05:13:59.799Z,14.70
2018-10-11T05:16:28.304Z,14.70
2018-10-11T05:19:03.041Z,14.70
2018-10-11T05:22:34.990Z,14.70
2018-10-11T05:25:03.713Z,14.80
2018-10-11T05:27:32.196Z,14.80
2018-10-11T05:30:00.686Z,14.80
2018-10-11T05:32:29.253Z,14.80
2018-10-11T05:34:57.733Z,14.80
2018-10-11T05:37:26.236Z,14.80
2018-10-11T05:39:54.739Z,14.80
2018-10-11T05:42:23.413Z,14.80
2018-10-11T05:44:52.368Z,14.80
2018-10-11T05:47:21.928Z,14.80
2018-10-11T05:49:50.478Z,14.70
2018-10-11T05:52:19.049Z,14.70
2018-10-11T05:54:47.641Z,14.70
2018-10-11T05:57:16.219Z,14.80
2018-10-11T05:59:44.832Z,14.90
2018-10-11T06:02:13.397Z,14.90
2018-10-11T06:04:41.944Z,15.00
2018-10-11T06:07:10.710Z,14.80
2018-10-11T06:09:39.241Z,14.70
2018-10-11T06:12:07.914Z,14.60
2018-10-11T06:14:36.667Z,14.60
2018-10-11T06:17:05.149Z,14.60
2018-10-11T06:19:33.754Z,14.50
2018-10-11T06:22:02.285Z,14.50
2018-10-11T06:24:30.809Z,14.50
2018-10-11T06:26:59.305Z,14.60
2018-10-11T06:29:27.951Z,14.60
2018-10-11T06:31:56.576Z,14.60
2018-10-11T06:34:25.216Z,14.60
2018-10-11T06:36:54.621Z,14.60
2018-10-11T06:39:23.205Z,14.70
2018-10-11T06:41:51.804Z,14.60
2018-10-11T06:44:20.360Z,14.60
2018-10-11T06:46:49.131Z,14.70
2018-10-11T06:49:17.701Z,14.70
2018-10-11T06:51:46.428Z,14.70
2018-10-11T06:54:14.952Z,14.70
2018-10-11T06:56:44.068Z,14.80
2018-10-11T06:59:12.580Z,14.80
2018-10-11T07:01:41.083Z,14.80
2018-10-11T07:04:09.526Z,14.90
2018-10-11T07:06:38.033Z,14.90
2018-10-11T07:09:08.162Z,14.90
2018-10-11T07:11:36.649Z,15.00
2018-10-11T07:14:05.191Z,15.00
2018-10-11T07:16:33.588Z,15.10
2018-10-11T07:19:02.068Z,15.10
2018-10-11T07:21:30.549Z,15.10
2018-10-11T07:23:59.013Z,15.20
2018-10-11T07:26:28.540Z,15.20
2018-10-11T07:28:57.039Z,15.20
2018-10-11T07:31:25.604Z,15.20
2018-10-11T07:33:54.092Z,15.30
2018-10-11T07:36:22.585Z,15.30
2018-10-11T07:38:51.041Z,15.40
2018-10-11T07:41:19.482Z,15.50
2018-10-11T07:43:48.009Z,15.60
2018-10-11T07:46:16.522Z,15.60
2018-10-11T07:48:45.021Z,15.60
2018-10-11T07:51:13.520Z,15.70
2018-10-11T07:53:42.080Z,15.80
2018-10-11T07:56:10.548Z,15.90
2018-10-11T07:58:39.213Z,16.00
2018-10-11T08:01:07.744Z,16.00
2018-10-11T08:03:36.389Z,16.10
2018-10-11T08:06:04.876Z,16.20
2018-10-11T08:08:33.668Z,16.30
2018-10-11T08:11:02.231Z,16.40
2018-10-11T08:13:30.829Z,16.60
2018-10-11T08:15:59.390Z,16.60
2018-10-11T08:18:28.010Z,16.70
2018-10-11T08:20:57.274Z,16.80
2018-10-11T08:23:25.789Z,16.90
2018-10-11T08:25:54.740Z,17.00
2018-10-11T08:28:22.727Z,17.10
2018-10-11T08:30:51.192Z,17.20
2018-10-11T08:33:20.940Z,17.40
2018-10-11T08:35:49.418Z,17.50
2018-10-11T08:38:17.978Z,17.60
2018-10-11T08:40:46.377Z,17.80
2018-10-11T08:43:14.833Z,18.00
2018-10-11T08:45:43.381Z,18.20
2018-10-11T08:48:11.868Z,18.30
2018-10-11T08:50:40.390Z,18.50
2018-10-11T08:53:09.746Z,18.60
2018-10-11T08:55:38.554Z,18.80
2018-10-11T08:58:06.885Z,18.90
2018-10-11T09:00:35.512Z,18.90
2018-10-11T09:03:04.020Z,19.00
2018-10-11T09:05:32.574Z,19.20
2018-10-11T09:08:01.096Z,19.40
2018-10-11T09:10:38.109Z,19.50
2018-10-11T09:12:58.060Z,19.60
2018-10-11T09:15:26.572Z,19.70
2018-10-11T09:17:55.014Z,19.70
2018-10-11T09:20:23.530Z,19.80
2018-10-11T09:22:51.993Z,19.80
2018-10-11T09:25:20.492Z,19.80
2018-10-11T09:27:48.979Z,19.80
2018-10-11T09:30:17.508Z,19.80
2018-10-11T09:32:45.964Z,19.90
2018-10-11T09:35:14.433Z,20.00
2018-10-11T09:37:42.888Z,20.00
2018-10-11T09:40:11.345Z,20.00
2018-10-11T09:42:39.860Z,20.10
2018-10-11T09:45:08.557Z,20.10
2018-10-11T09:47:37.088Z,20.30
2018-10-11T09:50:05.641Z,20.40
2018-10-11T09:52:34.493Z,20.60
2018-10-11T09:55:02.972Z,20.70
2018-10-11T09:57:36.589Z,20.80
2018-10-11T10:00:11.925Z,20.80
2018-10-11T10:02:40.401Z,20.90
2018-10-11T10:05:09.220Z,21.00
2018-10-11T10:07:37.749Z,21.00
2018-10-11T10:10:07.776Z,21.20
2018-10-11T10:12:36.358Z,21.20
2018-10-11T10:15:05.593Z,21.40
2018-10-11T10:17:34.385Z,21.40
2018-10-11T10:20:03.074Z,21.40
2018-10-11T10:22:31.574Z,21.50
2018-10-11T10:25:00.353Z,21.50
2018-10-11T10:27:29.125Z,21.60
2018-10-11T10:29:57.691Z,21.70
2018-10-11T10:32:26.267Z,21.70
2018-10-11T10:34:54.746Z,21.90
2018-10-11T10:38:26.481Z,21.90
2018-10-11T10:40:55.059Z,21.90
2018-10-11T10:43:23.573Z,22.10
2018-10-11T10:45:52.151Z,22.10
2018-10-11T10:48:20.636Z,22.20
2018-10-11T10:50:49.169Z,22.20
2018-10-11T10:53:17.607Z,22.20
2018-10-11T10:56:49.364Z,22.30
2018-10-11T10:59:18.965Z,22.30
2018-10-11T11:01:47.521Z,22.20
2018-10-11T11:04:16.020Z,22.20
2018-10-11T11:06:44.773Z,22.20
2018-10-11T11:09:14.034Z,22.30
2018-10-11T11:11:42.893Z,22.30
2018-10-11T11:14:12.659Z,22.40
2018-10-11T11:16:41.396Z,22.40
2018-10-11T11:19:10.541Z,22.50
2018-10-11T11:21:39.126Z,22.50
2018-10-11T11:24:07.664Z,22.50
2018-10-11T11:26:36.421Z,22.60
2018-10-11T11:29:05.028Z,22.60
2018-10-11T11:31:33.827Z,22.70
2018-10-11T11:34:02.893Z,22.70
2018-10-11T11:36:31.794Z,22.70
2018-10-11T11:39:00.388Z,22.70
2018-10-11T11:41:28.948Z,22.80
2018-10-11T11:43:57.414Z,22.80
2018-10-11T11:46:25.937Z,22.90
2018-10-11T11:48:54.697Z,23.00
2018-10-11T11:51:23.164Z,23.00
2018-10-11T11:53:51.825Z,23.20
2018-10-11T11:56:20.302Z,23.20
2018-10-11T11:58:48.848Z,23.30
2018-10-11T12:01:17.396Z,23.30
2018-10-11T12:03:45.854Z,23.20
2018-10-11T12:06:14.382Z,23.20
2018-10-11T12:08:42.932Z,23.20
2018-10-11T12:11:11.436Z,23.20
2018-10-11T12:13:39.878Z,23.10
2018-10-11T12:16:08.397Z,23.10
2018-10-11T12:18:36.945Z,23.00
2018-10-11T12:21:05.844Z,23.00
2018-10-11T12:23:34.384Z,23.00
2018-10-11T12:26:02.994Z,22.90
2018-10-11T12:28:31.557Z,22.90
2018-10-11T12:31:00.109Z,22.90
2018-10-11T12:33:28.640Z,22.80
2018-10-11T12:35:57.140Z,22.80
2018-10-11T12:38:25.640Z,22.70
2018-10-11T12:40:54.149Z,22.70
2018-10-11T12:43:22.594Z,22.70
2018-10-11T12:45:51.197Z,22.70
2018-10-11T12:48:19.653Z,22.80
2018-10-11T12:50:48.190Z,22.70
2018-10-11T12:53:16.670Z,22.80
2018-10-11T12:55:45.202Z,22.70
2018-10-11T12:58:13.702Z,22.70
2018-10-11T13:00:42.251Z,22.70
2018-10-11T13:03:10.753Z,22.70
2018-10-11T13:05:39.364Z,22.70
2018-10-11T13:08:07.867Z,22.70
2018-10-11T13:10:36.338Z,22.70
2018-10-11T13:13:09.744Z,22.70
2018-10-11T13:15:33.443Z,22.70
2018-10-11T13:18:01.982Z,22.80
2018-10-11T13:20:30.481Z,22.80
2018-10-11T13:22:58.969Z,22.80
2018-10-11T13:25:27.589Z,22.80
2018-10-11T13:27:56.072Z,22.80
2018-10-11T13:30:24.584Z,22.80
2018-10-11T13:32:53.264Z,22.80
2018-10-11T13:35:21.839Z,22.80
2018-10-11T13:37:50.418Z,22.80
2018-10-11T13:40:18.885Z,22.80
2018-10-11T13:42:48.446Z,22.80
2018-10-11T13:45:16.908Z,22.80
2018-10-11T13:47:45.604Z,22.80
2018-10-11T13:50:13.894Z,22.70
2018-10-11T13:52:42.384Z,22.80
2018-10-11T13:55:14.189Z,22.70
2018-10-11T13:57:39.425Z,22.80
2018-10-11T14:00:08.633Z,22.70
2018-10-11T14:02:37.694Z,22.80
2018-10-11T14:05:06.280Z,22.70
2018-10-11T14:07:34.784Z,22.80
2018-10-11T14:10:03.356Z,22.80
2018-10-11T14:12:31.913Z,22.80
2018-10-11T14:15:00.400Z,22.80
2018-10-11T14:17:29.023Z,22.80
2018-10-11T14:19:57.501Z,22.90
2018-10-11T14:22:26.049Z,22.90
2018-10-11T14:24:54.724Z,22.90
2018-10-11T14:27:24.356Z,23.00
2018-10-11T14:29:52.947Z,23.00
2018-10-11T14:32:21.488Z,23.00
2018-10-11T14:34:50.101Z,23.10
2018-10-11T14:37:18.804Z,23.10
2018-10-11T14:39:47.339Z,23.20
2018-10-11T14:42:15.919Z,23.30
2018-10-11T14:44:44.473Z,23.30
2018-10-11T14:47:12.959Z,23.20
2018-10-11T14:49:41.492Z,23.20
2018-10-11T14:52:10.073Z,23.00
2018-10-11T14:54:38.600Z,22.90
2018-10-11T14:57:07.352Z,22.80
2018-10-11T14:59:36.379Z,22.70
2018-10-11T15:02:05.107Z,22.60
2018-10-11T15:04:33.682Z,22.50
2018-10-11T15:07:02.265Z,22.40
2018-10-11T15:09:30.849Z,22.40
2018-10-11T15:11:59.956Z,22.40
2018-10-11T15:14:29.586Z,22.40
2018-10-11T15:16:58.185Z,22.40
2018-10-11T15:19:26.826Z,22.40
2018-10-11T15:21:55.699Z,22.40
2018-10-11T15:24:24.483Z,22.40
2018-10-11T15:26:53.715Z,22.40
2018-10-11T15:29:22.322Z,22.30
2018-10-11T15:31:50.875Z,22.30
2018-10-11T15:34:19.569Z,22.30
2018-10-11T15:36:48.348Z,22.30
2018-10-11T15:39:16.871Z,22.30
2018-10-11T15:41:45.381Z,22.30
2018-10-11T15:44:13.954Z,22.40
2018-10-11T15:46:42.868Z,22.40
2018-10-11T15:49:11.317Z,22.40
2018-10-11T15:51:39.914Z,22.30
2018-10-11T15:54:08.595Z,22.30
2018-10-11T15:56:37.241Z,22.30
2018-10-11T15:59:05.902Z,22.30
2018-10-11T16:01:34.391Z,22.30
2018-10-11T16:04:03.095Z,22.30
2018-10-11T16:06:31.695Z,22.30
2018-10-11T16:09:00.265Z,22.30
2018-10-11T16:11:28.683Z,22.30
2018-10-11T16:13:57.390Z,22.30
2018-10-11T16:16:26.081Z,22.20
2018-10-11T16:18:55.086Z,22.20
2018-10-11T16:21:23.565Z,22.10
2018-10-11T16:23:52.016Z,22.10
2018-10-11T16:26:20.527Z,22.00
2018-10-11T16:29:52.207Z,22.00
2018-10-11T16:32:21.004Z,21.90
2018-10-11T16:34:49.432Z,21.80
2018-10-11T16:37:17.921Z,21.70
2018-10-11T16:39:46.457Z,21.60
2018-10-11T16:42:15.042Z,21.60
2018-10-11T16:44:43.749Z,21.50
2018-10-11T16:47:12.316Z,21.50
2018-10-11T16:49:40.963Z,21.40
2018-10-11T16:52:09.408Z,21.40
2018-10-11T16:54:42.136Z,21.30
2018-10-11T16:57:11.724Z,21.30
2018-10-11T16:59:40.220Z,21.20
2018-10-11T17:02:08.851Z,21.20
2018-10-11T17:04:38.495Z,21.10
2018-10-11T17:07:07.023Z,21.10
2018-10-11T17:09:35.598Z,21.00
2018-10-11T17:12:04.089Z,21.00
2018-10-11T17:14:32.623Z,20.90
2018-10-11T17:17:01.081Z,20.90
2018-10-11T17:19:29.573Z,20.80
2018-10-11T17:21:58.095Z,20.80
2018-10-11T17:24:26.617Z,20.80
2018-10-11T17:26:55.149Z,20.70
2018-10-11T17:29:23.630Z,20.70
2018-10-11T17:31:52.316Z,20.70
2018-10-11T17:34:20.795Z,20.60
2018-10-11T17:36:49.294Z,20.60
2018-10-11T17:39:17.902Z,20.50
2018-10-11T17:41:46.466Z,20.50
2018-10-11T17:44:14.945Z,20.50
2018-10-11T17:46:43.513Z,20.50
2018-10-11T17:49:11.997Z,20.40
2018-10-11T17:51:41.483Z,20.40
2018-10-11T17:54:09.964Z,20.30
2018-10-11T17:56:38.829Z,20.30
2018-10-11T17:59:07.299Z,20.30
2018-10-11T18:01:36.028Z,20.20
2018-10-11T18:04:04.592Z,20.20
2018-10-11T18:06:33.108Z,20.20
2018-10-11T18:09:01.674Z,20.20
2018-10-11T18:11:30.173Z,20.10
2018-10-11T18:13:58.629Z,20.10
2018-10-11T18:16:27.130Z,20.10
2018-10-11T18:18:55.705Z,20.10
2018-10-11T18:21:24.270Z,20.00
2018-10-11T18:23:52.762Z,20.00
2018-10-11T18:26:21.269Z,20.00
2018-10-11T18:28:49.736Z,19.90
2018-10-11T18:31:18.241Z,19.90
2018-10-11T18:33:46.740Z,19.90
2018-10-11T18:36:15.189Z,19.90
2018-10-11T18:38:43.728Z,19.80
2018-10-11T18:41:12.264Z,19.80
2018-10-11T18:43:40.858Z,19.80
2018-10-11T18:46:09.449Z,19.80
2018-10-11T18:48:37.892Z,19.70
2018-10-11T18:51:06.460Z,19.70
2018-10-11T18:53:35.028Z,19.70
2018-10-11T18:56:03.589Z,19.60
2018-10-11T18:58:32.084Z,19.60
2018-10-11T19:01:00.635Z,19.50
2018-10-11T19:03:29.109Z,19.50
2018-10-11T19:05:57.637Z,19.50
2018-10-11T19:08:26.184Z,19.40
2018-10-11T19:10:54.643Z,19.40
2018-10-11T19:13:23.185Z,19.30
2018-10-11T19:15:51.696Z,19.30
2018-10-11T19:18:20.201Z,19.30
2018-10-11T19:20:49.058Z,19.20
2018-10-11T19:23:17.659Z,19.20
2018-10-11T19:25:46.379Z,19.20
2018-10-11T19:28:14.828Z,19.10
2018-10-11T19:30:44.002Z,19.10
2018-10-11T19:33:12.624Z,19.10
2018-10-11T19:35:41.229Z,19.10
2018-10-11T19:38:10.702Z,19.00
2018-10-11T19:40:40.212Z,19.00
2018-10-11T19:43:08.821Z,19.00
2018-10-11T19:45:37.313Z,18.90
2018-10-11T19:48:06.256Z,18.90
2018-10-11T19:50:35.061Z,18.90
2018-10-11T19:53:03.663Z,18.90
2018-10-11T19:55:32.136Z,18.80
2018-10-11T19:58:00.661Z,18.80
2018-10-11T20:00:29.221Z,18.80
2018-10-11T20:02:57.705Z,18.70
2018-10-11T20:05:26.331Z,18.70
2018-10-11T20:07:54.848Z,18.70
2018-10-11T20:10:23.324Z,18.60
2018-10-11T20:12:51.792Z,18.60
2018-10-11T20:15:20.286Z,18.60
2018-10-11T20:17:48.856Z,18.60
2018-10-11T20:20:17.429Z,18.60
2018-10-11T20:22:45.958Z,18.50
2018-10-11T20:25:14.359Z,18.50
2018-10-11T20:27:43.213Z,18.50
2018-10-11T20:30:11.686Z,18.40
2018-10-11T20:32:40.394Z,18.40
2018-10-11T20:35:08.875Z,18.40
2018-10-11T20:37:37.360Z,18.40
2018-10-11T20:40:06.173Z,18.30
2018-10-11T20:42:34.758Z,18.30
2018-10-11T20:45:03.330Z,18.30
2018-10-11T20:47:31.774Z,18.30
2018-10-11T20:50:00.250Z,18.30
2018-10-11T20:52:28.780Z,18.30
2018-10-11T20:54:57.205Z,18.30
2018-10-11T20:57:25.727Z,18.30
2018-10-11T20:59:54.196Z,18.30
2018-10-11T21:02:22.689Z,18.20
2018-10-11T21:04:51.141Z,18.20
2018-10-11T21:07:19.653Z,18.20
2018-10-11T21:09:48.128Z,18.10
2018-10-11T21:12:16.608Z,18.10
2018-10-11T21:14:45.148Z,18.10
2018-10-11T21:17:13.689Z,18.10
2018-10-11T21:19:42.350Z,18.10
2018-10-11T21:22:10.828Z,18.10
2018-10-11T21:24:39.350Z,18.00
2018-10-11T21:27:07.793Z,18.00
2018-10-11T21:29:36.315Z,18.00
2018-10-11T21:32:04.916Z,18.00
2018-10-11T21:34:33.425Z,18.00
2018-10-11T21:37:01.910Z,17.90
2018-10-11T21:39:30.394Z,17.90
2018-10-11T21:41:58.996Z,17.90
2018-10-11T21:44:27.475Z,17.90
2018-10-11T21:46:56.008Z,17.90
2018-10-11T21:49:24.500Z,17.90
2018-10-11T21:51:53.091Z,17.90
2018-10-11T21:54:22.649Z,17.90
2018-10-11T21:56:51.088Z,17.90
2018-10-11T21:59:19.637Z,17.80
2018-10-11T22:01:48.168Z,17.80
2018-10-11T22:04:16.646Z,17.70
2018-10-11T22:06:45.134Z,17.70
2018-10-11T22:09:13.559Z,17.70
2018-10-11T22:11:42.224Z,17.70
2018-10-11T22:14:10.673Z,17.70
2018-10-11T22:16:39.192Z,17.60
2018-10-11T22:19:08.357Z,17.60
2018-10-11T22:21:36.870Z,17.60
2018-10-11T22:24:05.320Z,17.60
2018-10-11T22:26:33.837Z,17.60
2018-10-11T22:29:02.369Z,17.60
2018-10-11T22:31:30.851Z,17.60
2018-10-11T22:33:59.372Z,17.60
2018-10-11T22:36:28.413Z,17.60
2018-10-11T22:38:56.980Z,17.60
2018-10-11T22:41:25.479Z,17.60
2018-10-11T22:43:54.121Z,17.50
2018-10-11T22:46:22.992Z,17.50
2018-10-11T22:48:51.537Z,17.50
2018-10-11T22:51:20.093Z,17.50
2018-10-11T22:53:48.646Z,17.50
2018-10-11T22:56:20.493Z,17.50
2018-10-11T22:58:50.196Z,17.50
2018-10-11T23:01:18.781Z,17.50
2018-10-11T23:03:47.325Z,17.50
2018-10-11T23:06:15.760Z,17.50
2018-10-11T23:08:44.261Z,17.50
2018-10-11T23:11:12.755Z,17.50
2018-10-11T23:14:44.717Z,17.60
2018-10-11T23:17:13.153Z,17.60
2018-10-11T23:19:42.038Z,17.50
2018-10-11T23:22:10.537Z,17.50
2018-10-11T23:24:41.021Z,17.50
2018-10-11T23:27:09.505Z,17.50
2018-10-11T23:29:37.938Z,17.50
2018-10-11T23:32:06.512Z,17.50
2018-10-11T23:34:34.989Z,17.50
2018-10-11T23:37:03.475Z,17.50
2018-10-11T23:39:32.035Z,17.60
2018-10-11T23:42:00.662Z,17.60
2018-10-11T23:44:29.240Z,17.60
2018-10-11T23:46:57.935Z,17.70
2018-10-11T23:50:29.782Z,17.70
2018-10-11T23:52:58.266Z,17.70
2018-10-11T23:55:26.776Z,17.70
2018-10-11T23:57:55.249Z,17.70
